Jacobabad Weather



Jacobabad's Current Weather

Temprature 30.106o clear sky

clear sky

Rain: 0 %

Min Temprature30.106o
Max Temprature30.106o
Humidity26
Wind Speed2.08 m/h
Sun Rise05:55:23
Sun Set18:54:20
Current Time: 21-Apr-2019 05:36:32
Lat/Lon: 28.29, 68.44




Jacobabad's Geo Location



Jacobabad's Weather Forecast

Time Overall Temp Min Temp Max Temp Humidity Wind Speed Rain
21-Apr-2019 (Sun)
08:00:00 clear sky 32.270 32.269 32.270 21 2.09 m/h 0 %
11:00:00 clear sky 36.850 36.850 36.850 15 1.77 m/h 0 %
14:00:00 clear sky 39.750 39.750 39.750 12 0.83 m/h 0 %
17:00:00 clear sky 40.950 40.950 40.950 10 1.02 m/h 0 %
20:00:00 clear sky 37.750 37.750 37.750 15 1.17 m/h 0 %
23:00:00 clear sky 35.100 35.100 35.100 18 2.01 m/h 0 %
22-Apr-2019 (Mon)
02:00:00 clear sky 33.670 33.670 33.670 19 3.01 m/h 0 %
05:00:00 clear sky 31.864 31.864 31.864 21 2.31 m/h 0 %
08:00:00 clear sky 34.466 34.466 34.466 18 1.89 m/h 0 %
11:00:00 clear sky 38.920 38.920 38.920 13 1.56 m/h 0 %
14:00:00 clear sky 41.915 41.915 41.915 9 1.28 m/h 0 %
17:00:00 clear sky 43.031 43.031 43.031 8 1.12 m/h 0 %
20:00:00 clear sky 39.550 39.550 39.550 11 2.07 m/h 0 %
23:00:00 clear sky 36.196 36.196 36.196 14 1.43 m/h 0 %
23-Apr-2019 (Tue)
02:00:00 few clouds 33.877 33.877 33.877 18 2.01 m/h 0 %
05:00:00 clear sky 32.086 32.086 32.086 22 1.7 m/h 0 %
08:00:00 scattered clouds 35.117 35.117 35.117 15 1.44 m/h 0 %
11:00:00 broken clouds 39.550 39.550 39.550 11 0.5 m/h 0 %
14:00:00 few clouds 42.450 42.450 42.450 8 0.71 m/h 0 %
17:00:00 broken clouds 43.350 43.350 43.350 8 0.77 m/h 0 %
20:00:00 light rain 39.028 39.028 39.028 13 2.91 m/h 31 %
23:00:00 light rain 36.850 36.850 36.850 15 1.64 m/h 6 %
24-Apr-2019 (Wed)
02:00:00 broken clouds 34.782 34.782 34.782 23 1.66 m/h 0 %
05:00:00 light rain 32.244 32.244 32.244 29 0.84 m/h 44 %
08:00:00 light rain 34.350 34.350 34.350 24 2.26 m/h 19 %
11:00:00 light rain 38.208 38.208 38.208 18 2.3 m/h 100 %
14:00:00 clear sky 41.150 41.150 41.150 14 2.56 m/h 0 %
17:00:00 clear sky 41.850 41.850 41.850 13 2.06 m/h 0 %
20:00:00 clear sky 38.055 38.055 38.055 19 2.4 m/h 0 %
23:00:00 clear sky 35.245 35.245 35.245 24 3.52 m/h 0 %
25-Apr-2019 (Thu)
02:00:00 light rain 33.650 33.650 33.650 27 1.93 m/h 38 %
05:00:00 clear sky 32.362 32.362 32.362 29 2.3 m/h 0 %
08:00:00 clear sky 32.920 32.920 32.920 30 5.12 m/h 0 %
11:00:00 clear sky 36.590 36.590 36.590 25 3.23 m/h 0 %
14:00:00 clear sky 39.050 39.050 39.050 18 0.68 m/h 0 %
17:00:00 clear sky 40.011 40.011 40.011 13 0.15 m/h 0 %
20:00:00 clear sky 38.325 38.325 38.325 15 2.03 m/h 0 %
23:00:00 clear sky 35.643 35.643 35.643 21 3.3 m/h 0 %
26-Apr-2019 (Fri)
02:00:00 clear sky 33.332 33.332 33.332 22 3.9 m/h 0 %
05:00:00 clear sky 31.566 31.566 31.566 19 4.35 m/h 0 %

Famous Cities (60)